sensor_id;sensor_type;location;lat;lon;timestamp;temperature;humidity
69009;SHT31;56065;52.472;13.380;2023-12-20T00:01:00;8.28;96.48
69009;SHT31;56065;52.472;13.380;2023-12-20T00:03:25;8.26;96.49
69009;SHT31;56065;52.472;13.380;2023-12-20T00:05:51;8.29;96.22
69009;SHT31;56065;52.472;13.380;2023-12-20T00:08:16;8.28;96.43
69009;SHT31;56065;52.472;13.380;2023-12-20T00:10:43;8.31;96.39
69009;SHT31;56065;52.472;13.380;2023-12-20T00:13:08;8.25;96.33
69009;SHT31;56065;52.472;13.380;2023-12-20T00:15:34;8.25;96.44
69009;SHT31;56065;52.472;13.380;2023-12-20T00:17:59;8.28;96.28
69009;SHT31;56065;52.472;13.380;2023-12-20T00:20:26;8.26;96.39
69009;SHT31;56065;52.472;13.380;2023-12-20T00:22:51;8.25;96.44
69009;SHT31;56065;52.472;13.380;2023-12-20T00:25:16;8.25;96.81
69009;SHT31;56065;52.472;13.380;2023-12-20T00:27:43;8.29;96.43
69009;SHT31;56065;52.472;13.380;2023-12-20T00:30:09;8.28;96.60
69009;SHT31;56065;52.472;13.380;2023-12-20T00:32:35;8.29;96.60
69009;SHT31;56065;52.472;13.380;2023-12-20T00:35:00;8.32;96.43
69009;SHT31;56065;52.472;13.380;2023-12-20T00:37:26;8.36;96.56
69009;SHT31;56065;52.472;13.380;2023-12-20T00:39:51;8.39;96.40
69009;SHT31;56065;52.472;13.380;2023-12-20T00:42:16;8.31;96.36
69009;SHT31;56065;52.472;13.380;2023-12-20T00:44:42;8.41;96.31
69009;SHT31;56065;52.472;13.380;2023-12-20T00:47:07;8.33;96.25
69009;SHT31;56065;52.472;13.380;2023-12-20T00:49:32;8.36;96.13
69009;SHT31;56065;52.472;13.380;2023-12-20T00:51:58;8.32;96.30
69009;SHT31;56065;52.472;13.380;2023-12-20T00:54:23;8.32;96.49
69009;SHT31;56065;52.472;13.380;2023-12-20T00:56:49;8.35;96.40
69009;SHT31;56065;52.472;13.380;2023-12-20T00:59:16;8.31;96.25
69009;SHT31;56065;52.472;13.380;2023-12-20T01:01:41;8.29;96.25
69009;SHT31;56065;52.472;13.380;2023-12-20T01:04:07;8.25;96.62
69009;SHT31;56065;52.472;13.380;2023-12-20T01:06:32;8.24;96.81
69009;SHT31;56065;52.472;13.380;2023-12-20T01:08:58;8.24;96.70
69009;SHT31;56065;52.472;13.380;2023-12-20T01:11:23;8.24;96.54
69009;SHT31;56065;52.472;13.380;2023-12-20T01:13:48;8.26;96.89
69009;SHT31;56065;52.472;13.380;2023-12-20T01:16:14;8.29;96.64
69009;SHT31;56065;52.472;13.380;2023-12-20T01:18:39;8.29;96.46
69009;SHT31;56065;52.472;13.380;2023-12-20T01:21:05;8.29;96.67
69009;SHT31;56065;52.472;13.380;2023-12-20T01:23:31;8.35;96.76
69009;SHT31;56065;52.472;13.380;2023-12-20T01:25:57;8.41;96.54
69009;SHT31;56065;52.472;13.380;2023-12-20T01:28:24;8.43;96.65
69009;SHT31;56065;52.472;13.380;2023-12-20T01:30:50;8.43;96.78
69009;SHT31;56065;52.472;13.380;2023-12-20T01:33:15;8.48;96.72
69009;SHT31;56065;52.472;13.380;2023-12-20T01:35:40;8.53;96.52
69009;SHT31;56065;52.472;13.380;2023-12-20T01:38:05;8.46;96.71
69009;SHT31;56065;52.472;13.380;2023-12-20T01:40:31;8.52;96.45
69009;SHT31;56065;52.472;13.380;2023-12-20T01:43:09;8.53;96.62
69009;SHT31;56065;52.472;13.380;2023-12-20T01:45:35;8.53;96.58
69009;SHT31;56065;52.472;13.380;2023-12-20T01:48:01;8.49;96.39
69009;SHT31;56065;52.472;13.380;2023-12-20T01:50:28;8.60;96.59
69009;SHT31;56065;52.472;13.380;2023-12-20T01:52:55;8.63;96.29
69009;SHT31;56065;52.472;13.380;2023-12-20T01:55:23;8.54;96.39
69009;SHT31;56065;52.472;13.380;2023-12-20T01:57:49;8.63;96.29
69009;SHT31;56065;52.472;13.380;2023-12-20T02:00:15;8.60;96.36
69009;SHT31;56065;52.472;13.380;2023-12-20T02:02:43;8.70;96.33
69009;SHT31;56065;52.472;13.380;2023-12-20T02:05:10;8.67;96.27
69009;SHT31;56065;52.472;13.380;2023-12-20T02:07:36;8.69;96.16
69009;SHT31;56065;52.472;13.380;2023-12-20T02:10:01;8.70;96.19
69009;SHT31;56065;52.472;13.380;2023-12-20T02:12:27;8.73;95.97
69009;SHT31;56065;52.472;13.380;2023-12-20T02:14:52;8.73;96.10
69009;SHT31;56065;52.472;13.380;2023-12-20T02:17:19;8.72;96.11
69009;SHT31;56065;52.472;13.380;2023-12-20T02:19:44;8.77;96.24
69009;SHT31;56065;52.472;13.380;2023-12-20T02:22:13;8.72;96.16
69009;SHT31;56065;52.472;13.380;2023-12-20T02:24:39;8.79;96.17
69009;SHT31;56065;52.472;13.380;2023-12-20T02:27:06;8.79;96.22
69009;SHT31;56065;52.472;13.380;2023-12-20T02:29:32;8.81;96.31
69009;SHT31;56065;52.472;13.380;2023-12-20T02:31:58;8.85;95.98
69009;SHT31;56065;52.472;13.380;2023-12-20T02:34:23;8.85;95.91
69009;SHT31;56065;52.472;13.380;2023-12-20T02:36:48;8.83;95.86
69009;SHT31;56065;52.472;13.380;2023-12-20T02:39:14;8.80;95.63
69009;SHT31;56065;52.472;13.380;2023-12-20T02:41:39;8.90;95.29
69009;SHT31;56065;52.472;13.380;2023-12-20T02:44:04;8.81;95.49
69009;SHT31;56065;52.472;13.380;2023-12-20T02:46:30;8.81;95.41
69009;SHT31;56065;52.472;13.380;2023-12-20T02:48:55;8.81;95.39
69009;SHT31;56065;52.472;13.380;2023-12-20T02:51:20;8.87;95.36
69009;SHT31;56065;52.472;13.380;2023-12-20T02:53:46;8.88;95.15
69009;SHT31;56065;52.472;13.380;2023-12-20T02:56:11;8.81;95.01
69009;SHT31;56065;52.472;13.380;2023-12-20T02:58:37;8.87;95.14
69009;SHT31;56065;52.472;13.380;2023-12-20T03:01:03;8.87;94.87
69009;SHT31;56065;52.472;13.380;2023-12-20T03:03:28;8.84;94.91
69009;SHT31;56065;52.472;13.380;2023-12-20T03:05:54;8.81;94.78
69009;SHT31;56065;52.472;13.380;2023-12-20T03:08:19;8.91;94.87
69009;SHT31;56065;52.472;13.380;2023-12-20T03:10:44;8.93;94.76
69009;SHT31;56065;52.472;13.380;2023-12-20T03:13:10;8.96;94.57
69009;SHT31;56065;52.472;13.380;2023-12-20T03:15:35;8.94;94.57
69009;SHT31;56065;52.472;13.380;2023-12-20T03:18:01;8.90;94.33
69009;SHT31;56065;52.472;13.380;2023-12-20T03:20:26;8.87;94.23
69009;SHT31;56065;52.472;13.380;2023-12-20T03:22:52;8.83;94.07
69009;SHT31;56065;52.472;13.380;2023-12-20T03:25:17;8.85;93.78
69009;SHT31;56065;52.472;13.380;2023-12-20T03:27:42;8.70;93.66
69009;SHT31;56065;52.472;13.380;2023-12-20T03:30:08;8.81;93.80
69009;SHT31;56065;52.472;13.380;2023-12-20T03:32:34;8.77;93.69
69009;SHT31;56065;52.472;13.380;2023-12-20T03:34:59;8.74;94.16
69009;SHT31;56065;52.472;13.380;2023-12-20T03:37:24;8.69;93.95
69009;SHT31;56065;52.472;13.380;2023-12-20T03:39:50;8.70;93.81
69009;SHT31;56065;52.472;13.380;2023-12-20T03:42:15;8.73;93.81
69009;SHT31;56065;52.472;13.380;2023-12-20T03:44:41;8.79;93.99
69009;SHT31;56065;52.472;13.380;2023-12-20T03:47:06;8.73;93.85
69009;SHT31;56065;52.472;13.380;2023-12-20T03:49:32;8.90;94.14
69009;SHT31;56065;52.472;13.380;2023-12-20T03:51:57;8.91;93.99
69009;SHT31;56065;52.472;13.380;2023-12-20T03:54:22;8.85;93.61
69009;SHT31;56065;52.472;13.380;2023-12-20T03:56:48;8.84;93.62
69009;SHT31;56065;52.472;13.380;2023-12-20T03:59:13;8.77;93.43
69009;SHT31;56065;52.472;13.380;2023-12-20T04:01:43;8.77;93.46
69009;SHT31;56065;52.472;13.380;2023-12-20T04:04:08;8.80;93.22
69009;SHT31;56065;52.472;13.380;2023-12-20T04:06:33;8.79;93.23
69009;SHT31;56065;52.472;13.380;2023-12-20T04:08:59;8.80;93.27
69009;SHT31;56065;52.472;13.380;2023-12-20T04:11:25;8.77;93.25
69009;SHT31;56065;52.472;13.380;2023-12-20T04:13:50;8.73;93.45
69009;SHT31;56065;52.472;13.380;2023-12-20T04:16:15;8.64;93.12
69009;SHT31;56065;52.472;13.380;2023-12-20T04:18:41;8.60;93.12
69009;SHT31;56065;52.472;13.380;2023-12-20T04:21:06;8.56;93.26
69009;SHT31;56065;52.472;13.380;2023-12-20T04:23:32;8.45;93.31
69009;SHT31;56065;52.472;13.380;2023-12-20T04:25:57;8.48;93.43
69009;SHT31;56065;52.472;13.380;2023-12-20T04:28:23;8.33;93.25
69009;SHT31;56065;52.472;13.380;2023-12-20T04:30:48;8.28;93.18
69009;SHT31;56065;52.472;13.380;2023-12-20T04:33:14;8.18;93.45
69009;SHT31;56065;52.472;13.380;2023-12-20T04:35:39;8.05;93.19
69009;SHT31;56065;52.472;13.380;2023-12-20T04:38:06;8.02;93.31
69009;SHT31;56065;52.472;13.380;2023-12-20T04:40:31;7.98;93.51
69009;SHT31;56065;52.472;13.380;2023-12-20T04:42:57;7.91;93.78
69009;SHT31;56065;52.472;13.380;2023-12-20T04:45:22;7.85;93.67
69009;SHT31;56065;52.472;13.380;2023-12-20T04:47:49;7.77;93.94
69009;SHT31;56065;52.472;13.380;2023-12-20T04:50:15;7.81;93.88
69009;SHT31;56065;52.472;13.380;2023-12-20T04:52:41;7.71;94.04
69009;SHT31;56065;52.472;13.380;2023-12-20T04:55:06;7.67;94.10
69009;SHT31;56065;52.472;13.380;2023-12-20T04:57:32;7.60;94.13
69009;SHT31;56065;52.472;13.380;2023-12-20T04:59:57;7.56;94.11
69009;SHT31;56065;52.472;13.380;2023-12-20T05:02:22;7.43;94.30
69009;SHT31;56065;52.472;13.380;2023-12-20T05:04:48;7.40;94.17
69009;SHT31;56065;52.472;13.380;2023-12-20T05:07:13;7.32;94.01
69009;SHT31;56065;52.472;13.380;2023-12-20T05:09:39;7.27;94.13
69009;SHT31;56065;52.472;13.380;2023-12-20T05:12:04;7.30;94.26
69009;SHT31;56065;52.472;13.380;2023-12-20T05:14:30;7.30;94.24
69009;SHT31;56065;52.472;13.380;2023-12-20T05:16:55;7.42;94.32
69009;SHT31;56065;52.472;13.380;2023-12-20T05:19:21;7.47;94.00
69009;SHT31;56065;52.472;13.380;2023-12-20T05:21:47;7.59;94.11
69009;SHT31;56065;52.472;13.380;2023-12-20T05:24:12;7.67;93.68
69009;SHT31;56065;52.472;13.380;2023-12-20T05:26:37;7.50;93.42
69009;SHT31;56065;52.472;13.380;2023-12-20T05:29:03;7.56;93.37
69009;SHT31;56065;52.472;13.380;2023-12-20T05:31:28;7.47;93.52
69009;SHT31;56065;52.472;13.380;2023-12-20T05:33:53;7.36;93.58
69009;SHT31;56065;52.472;13.380;2023-12-20T05:36:19;7.32;93.42
69009;SHT31;56065;52.472;13.380;2023-12-20T05:38:45;7.15;93.73
69009;SHT31;56065;52.472;13.380;2023-12-20T05:41:10;7.05;93.61
69009;SHT31;56065;52.472;13.380;2023-12-20T05:43:35;7.01;93.52
69009;SHT31;56065;52.472;13.380;2023-12-20T05:46:00;6.91;93.98
69009;SHT31;56065;52.472;13.380;2023-12-20T05:48:26;6.85;93.84
69009;SHT31;56065;52.472;13.380;2023-12-20T05:50:52;6.85;93.76
69009;SHT31;56065;52.472;13.380;2023-12-20T05:53:18;6.78;93.45
69009;SHT31;56065;52.472;13.380;2023-12-20T05:55:43;6.70;93.66
69009;SHT31;56065;52.472;13.380;2023-12-20T05:58:08;6.63;93.64
69009;SHT31;56065;52.472;13.380;2023-12-20T06:00:34;6.58;93.93
69009;SHT31;56065;52.472;13.380;2023-12-20T06:02:59;6.52;93.90
69009;SHT31;56065;52.472;13.380;2023-12-20T06:05:24;6.54;94.10
69009;SHT31;56065;52.472;13.380;2023-12-20T06:07:50;6.52;94.42
69009;SHT31;56065;52.472;13.380;2023-12-20T06:10:16;6.51;94.41
69009;SHT31;56065;52.472;13.380;2023-12-20T06:12:41;6.45;94.29
69009;SHT31;56065;52.472;13.380;2023-12-20T06:15:07;6.45;94.06
69009;SHT31;56065;52.472;13.380;2023-12-20T06:17:32;6.45;94.11
69009;SHT31;56065;52.472;13.380;2023-12-20T06:19:58;6.47;94.02
69009;SHT31;56065;52.472;13.380;2023-12-20T06:22:23;6.44;94.21
69009;SHT31;56065;52.472;13.380;2023-12-20T06:24:48;6.37;94.22
69009;SHT31;56065;52.472;13.380;2023-12-20T06:27:14;6.37;94.07
69009;SHT31;56065;52.472;13.380;2023-12-20T06:29:39;6.40;94.13
69009;SHT31;56065;52.472;13.380;2023-12-20T06:32:06;6.40;94.14
69009;SHT31;56065;52.472;13.380;2023-12-20T06:34:31;6.45;94.16
69009;SHT31;56065;52.472;13.380;2023-12-20T06:36:57;6.41;94.10
69009;SHT31;56065;52.472;13.380;2023-12-20T06:39:22;6.40;94.21
69009;SHT31;56065;52.472;13.380;2023-12-20T06:41:47;6.45;94.23
69009;SHT31;56065;52.472;13.380;2023-12-20T06:44:13;6.50;94.19
69009;SHT31;56065;52.472;13.380;2023-12-20T06:46:38;6.54;94.25
69009;SHT31;56065;52.472;13.380;2023-12-20T06:49:03;6.47;94.29
69009;SHT31;56065;52.472;13.380;2023-12-20T06:51:29;6.52;94.29
69009;SHT31;56065;52.472;13.380;2023-12-20T06:53:56;6.48;94.37
69009;SHT31;56065;52.472;13.380;2023-12-20T06:56:21;6.45;94.21
69009;SHT31;56065;52.472;13.380;2023-12-20T06:58:46;6.57;94.16
69009;SHT31;56065;52.472;13.380;2023-12-20T07:01:13;6.54;94.23
69009;SHT31;56065;52.472;13.380;2023-12-20T07:03:38;6.54;94.38
69009;SHT31;56065;52.472;13.380;2023-12-20T07:06:04;6.58;94.17
69009;SHT31;56065;52.472;13.380;2023-12-20T07:08:29;6.64;94.04
69009;SHT31;56065;52.472;13.380;2023-12-20T07:10:54;6.61;93.96
69009;SHT31;56065;52.472;13.380;2023-12-20T07:13:20;6.63;93.73
69009;SHT31;56065;52.472;13.380;2023-12-20T07:15:45;6.61;93.65
69009;SHT31;56065;52.472;13.380;2023-12-20T07:18:10;6.67;93.37
69009;SHT31;56065;52.472;13.380;2023-12-20T07:20:36;6.71;93.42
69009;SHT31;56065;52.472;13.380;2023-12-20T07:23:01;6.70;93.61
69009;SHT31;56065;52.472;13.380;2023-12-20T07:25:26;6.68;93.69
69009;SHT31;56065;52.472;13.380;2023-12-20T07:27:52;6.72;93.51
69009;SHT31;56065;52.472;13.380;2023-12-20T07:30:17;6.77;93.29
69009;SHT31;56065;52.472;13.380;2023-12-20T07:32:43;6.67;93.19
69009;SHT31;56065;52.472;13.380;2023-12-20T07:35:08;6.65;93.46
69009;SHT31;56065;52.472;13.380;2023-12-20T07:37:33;6.70;92.99
69009;SHT31;56065;52.472;13.380;2023-12-20T07:39:59;6.70;93.03
69009;SHT31;56065;52.472;13.380;2023-12-20T07:42:24;6.75;93.12
69009;SHT31;56065;52.472;13.380;2023-12-20T07:44:49;6.79;92.62
69009;SHT31;56065;52.472;13.380;2023-12-20T07:47:15;6.79;92.70
69009;SHT31;56065;52.472;13.380;2023-12-20T07:49:46;6.85;92.53
69009;SHT31;56065;52.472;13.380;2023-12-20T07:52:12;6.82;92.30
69009;SHT31;56065;52.472;13.380;2023-12-20T07:54:37;6.79;92.14
69009;SHT31;56065;52.472;13.380;2023-12-20T07:57:03;6.85;92.28
69009;SHT31;56065;52.472;13.380;2023-12-20T07:59:28;6.78;92.07
69009;SHT31;56065;52.472;13.380;2023-12-20T08:01:53;6.84;91.96
69009;SHT31;56065;52.472;13.380;2023-12-20T08:04:19;6.84;91.93
69009;SHT31;56065;52.472;13.380;2023-12-20T08:06:44;6.81;91.83
69009;SHT31;56065;52.472;13.380;2023-12-20T08:09:09;6.89;91.68
69009;SHT31;56065;52.472;13.380;2023-12-20T08:11:35;6.87;91.38
69009;SHT31;56065;52.472;13.380;2023-12-20T08:14:00;6.85;91.57
69009;SHT31;56065;52.472;13.380;2023-12-20T08:16:26;6.91;91.80
69009;SHT31;56065;52.472;13.380;2023-12-20T08:18:51;6.88;92.07
69009;SHT31;56065;52.472;13.380;2023-12-20T08:21:17;6.91;92.31
69009;SHT31;56065;52.472;13.380;2023-12-20T08:23:45;6.93;92.01
69009;SHT31;56065;52.472;13.380;2023-12-20T08:26:11;6.92;92.14
69009;SHT31;56065;52.472;13.380;2023-12-20T08:28:36;6.84;92.07
69009;SHT31;56065;52.472;13.380;2023-12-20T08:31:02;6.98;92.12
69009;SHT31;56065;52.472;13.380;2023-12-20T08:33:27;6.96;91.85
69009;SHT31;56065;52.472;13.380;2023-12-20T08:35:53;6.98;91.63
69009;SHT31;56065;52.472;13.380;2023-12-20T08:38:18;6.98;91.77
69009;SHT31;56065;52.472;13.380;2023-12-20T08:40:44;7.05;91.61
69009;SHT31;56065;52.472;13.380;2023-12-20T08:43:09;7.08;91.78
69009;SHT31;56065;52.472;13.380;2023-12-20T08:45:35;7.20;91.42
69009;SHT31;56065;52.472;13.380;2023-12-20T08:48:00;7.32;91.11
69009;SHT31;56065;52.472;13.380;2023-12-20T08:50:26;7.50;90.77
69009;SHT31;56065;52.472;13.380;2023-12-20T08:52:51;7.63;90.37
69009;SHT31;56065;52.472;13.380;2023-12-20T08:55:17;7.85;89.85
69009;SHT31;56065;52.472;13.380;2023-12-20T08:57:43;7.90;89.71
69009;SHT31;56065;52.472;13.380;2023-12-20T09:00:09;7.70;89.95
69009;SHT31;56065;52.472;13.380;2023-12-20T09:02:34;7.64;90.62
69009;SHT31;56065;52.472;13.380;2023-12-20T09:05:03;7.50;90.93
69009;SHT31;56065;52.472;13.380;2023-12-20T09:07:28;7.50;90.96
69009;SHT31;56065;52.472;13.380;2023-12-20T09:09:56;7.61;91.02
69009;SHT31;56065;52.472;13.380;2023-12-20T09:12:22;7.75;90.36
69009;SHT31;56065;52.472;13.380;2023-12-20T09:14:49;7.94;90.23
69009;SHT31;56065;52.472;13.380;2023-12-20T09:17:15;7.94;89.43
69009;SHT31;56065;52.472;13.380;2023-12-20T09:19:42;8.04;89.57
69009;SHT31;56065;52.472;13.380;2023-12-20T09:22:09;7.91;89.18
69009;SHT31;56065;52.472;13.380;2023-12-20T09:24:34;7.92;89.20
69009;SHT31;56065;52.472;13.380;2023-12-20T09:26:59;7.94;89.32
69009;SHT31;56065;52.472;13.380;2023-12-20T09:29:25;7.81;89.50
69009;SHT31;56065;52.472;13.380;2023-12-20T09:31:50;7.59;89.52
69009;SHT31;56065;52.472;13.380;2023-12-20T09:34:16;7.73;89.85
69009;SHT31;56065;52.472;13.380;2023-12-20T09:36:42;7.73;90.04
69009;SHT31;56065;52.472;13.380;2023-12-20T09:39:13;7.71;89.56
69009;SHT31;56065;52.472;13.380;2023-12-20T09:41:43;7.73;89.79
69009;SHT31;56065;52.472;13.380;2023-12-20T09:44:13;7.70;89.49
69009;SHT31;56065;52.472;13.380;2023-12-20T09:46:43;7.69;89.59
69009;SHT31;56065;52.472;13.380;2023-12-20T09:49:08;7.80;89.71
69009;SHT31;56065;52.472;13.380;2023-12-20T09:51:34;7.75;89.42
69009;SHT31;56065;52.472;13.380;2023-12-20T09:54:00;7.84;89.26
69009;SHT31;56065;52.472;13.380;2023-12-20T09:56:28;7.90;89.18
69009;SHT31;56065;52.472;13.380;2023-12-20T09:58:54;7.99;88.90
69009;SHT31;56065;52.472;13.380;2023-12-20T10:01:19;8.05;88.68
69009;SHT31;56065;52.472;13.380;2023-12-20T10:03:46;7.94;88.25
69009;SHT31;56065;52.472;13.380;2023-12-20T10:06:11;8.01;88.33
69009;SHT31;56065;52.472;13.380;2023-12-20T10:08:37;7.95;88.33
69009;SHT31;56065;52.472;13.380;2023-12-20T10:11:03;8.04;87.63
69009;SHT31;56065;52.472;13.380;2023-12-20T10:13:29;8.08;88.11
69009;SHT31;56065;52.472;13.380;2023-12-20T10:15:55;8.09;88.03
69009;SHT31;56065;52.472;13.380;2023-12-20T10:18:21;8.08;87.81
69009;SHT31;56065;52.472;13.380;2023-12-20T10:20:46;8.02;87.93
69009;SHT31;56065;52.472;13.380;2023-12-20T10:23:12;8.05;87.70
69009;SHT31;56065;52.472;13.380;2023-12-20T10:25:39;8.02;87.83
69009;SHT31;56065;52.472;13.380;2023-12-20T10:28:09;7.98;87.45
69009;SHT31;56065;52.472;13.380;2023-12-20T10:30:35;8.04;87.59
69009;SHT31;56065;52.472;13.380;2023-12-20T10:33:01;7.99;87.14
69009;SHT31;56065;52.472;13.380;2023-12-20T10:35:26;8.02;87.06
69009;SHT31;56065;52.472;13.380;2023-12-20T10:37:56;8.02;87.28
69009;SHT31;56065;52.472;13.380;2023-12-20T10:40:22;8.05;87.31
69009;SHT31;56065;52.472;13.380;2023-12-20T10:42:48;8.01;86.60
69009;SHT31;56065;52.472;13.380;2023-12-20T10:45:13;8.18;87.05
69009;SHT31;56065;52.472;13.380;2023-12-20T10:47:39;8.15;86.69
69009;SHT31;56065;52.472;13.380;2023-12-20T10:50:06;8.32;86.88
69009;SHT31;56065;52.472;13.380;2023-12-20T10:52:32;8.36;86.70
69009;SHT31;56065;52.472;13.380;2023-12-20T10:54:59;8.31;86.15
69009;SHT31;56065;52.472;13.380;2023-12-20T10:57:26;8.24;86.46
69009;SHT31;56065;52.472;13.380;2023-12-20T10:59:53;8.13;86.54
69009;SHT31;56065;52.472;13.380;2023-12-20T11:02:19;8.31;86.57
69009;SHT31;56065;52.472;13.380;2023-12-20T11:07:24;8.15;86.54
69009;SHT31;56065;52.472;13.380;2023-12-20T11:10:09;8.12;86.61
69009;SHT31;56065;52.472;13.380;2023-12-20T11:12:48;8.18;87.31
69009;SHT31;56065;52.472;13.380;2023-12-20T11:15:16;8.11;88.11
69009;SHT31;56065;52.472;13.380;2023-12-20T11:17:44;8.08;89.22
69009;SHT31;56065;52.472;13.380;2023-12-20T11:20:10;8.05;88.74
69009;SHT31;56065;52.472;13.380;2023-12-20T11:22:36;7.99;88.92
69009;SHT31;56065;52.472;13.380;2023-12-20T11:25:04;8.12;89.36
69009;SHT31;56065;52.472;13.380;2023-12-20T11:27:31;8.08;89.32
69009;SHT31;56065;52.472;13.380;2023-12-20T11:29:58;8.08;89.09
69009;SHT31;56065;52.472;13.380;2023-12-20T11:34:58;7.98;89.67
69009;SHT31;56065;52.472;13.380;2023-12-20T11:37:32;7.98;89.59
69009;SHT31;56065;52.472;13.380;2023-12-20T11:40:05;7.92;89.37
69009;SHT31;56065;52.472;13.380;2023-12-20T11:42:41;7.82;89.43
69009;SHT31;56065;52.472;13.380;2023-12-20T11:45:14;7.82;89.01
69009;SHT31;56065;52.472;13.380;2023-12-20T11:47:45;7.81;89.24
69009;SHT31;56065;52.472;13.380;2023-12-20T11:50:11;7.78;89.36
69009;SHT31;56065;52.472;13.380;2023-12-20T11:52:36;7.78;89.56
69009;SHT31;56065;52.472;13.380;2023-12-20T11:55:02;7.75;89.25
69009;SHT31;56065;52.472;13.380;2023-12-20T11:57:29;7.85;89.80
69009;SHT31;56065;52.472;13.380;2023-12-20T11:59:54;7.77;89.26
69009;SHT31;56065;52.472;13.380;2023-12-20T12:02:20;7.69;89.77
69009;SHT31;56065;52.472;13.380;2023-12-20T12:04:48;7.80;89.38
69009;SHT31;56065;52.472;13.380;2023-12-20T12:07:13;7.75;89.76
69009;SHT31;56065;52.472;13.380;2023-12-20T12:09:39;7.78;89.23
69009;SHT31;56065;52.472;13.380;2023-12-20T12:12:05;7.81;89.11
69009;SHT31;56065;52.472;13.380;2023-12-20T12:14:30;7.85;88.66
69009;SHT31;56065;52.472;13.380;2023-12-20T12:16:56;7.85;88.12
69009;SHT31;56065;52.472;13.380;2023-12-20T12:19:25;7.94;88.09
69009;SHT31;56065;52.472;13.380;2023-12-20T12:21:52;7.92;88.06
69009;SHT31;56065;52.472;13.380;2023-12-20T12:24:29;7.90;87.68
69009;SHT31;56065;52.472;13.380;2023-12-20T12:26:57;7.90;87.78
69009;SHT31;56065;52.472;13.380;2023-12-20T12:29:22;7.91;88.24
69009;SHT31;56065;52.472;13.380;2023-12-20T12:31:50;7.87;89.09
69009;SHT31;56065;52.472;13.380;2023-12-20T12:34:15;7.80;90.70
69009;SHT31;56065;52.472;13.380;2023-12-20T12:36:41;7.75;91.11
69009;SHT31;56065;52.472;13.380;2023-12-20T12:39:07;7.54;91.13
69009;SHT31;56065;52.472;13.380;2023-12-20T12:41:32;7.51;92.11
69009;SHT31;56065;52.472;13.380;2023-12-20T12:43:57;7.46;92.12
69009;SHT31;56065;52.472;13.380;2023-12-20T12:46:23;7.40;92.19
69009;SHT31;56065;52.472;13.380;2023-12-20T12:48:48;7.32;92.99
69009;SHT31;56065;52.472;13.380;2023-12-20T12:51:15;7.24;93.18
69009;SHT31;56065;52.472;13.380;2023-12-20T12:53:41;7.23;93.62
69009;SHT31;56065;52.472;13.380;2023-12-20T12:56:07;7.24;93.79
69009;SHT31;56065;52.472;13.380;2023-12-20T12:58:33;7.20;93.84
69009;SHT31;56065;52.472;13.380;2023-12-20T13:00:58;7.16;94.07
69009;SHT31;56065;52.472;13.380;2023-12-20T13:03:24;7.12;94.43
69009;SHT31;56065;52.472;13.380;2023-12-20T13:05:50;7.10;94.60
69009;SHT31;56065;52.472;13.380;2023-12-20T13:08:15;7.12;94.38
69009;SHT31;56065;52.472;13.380;2023-12-20T13:10:40;7.01;94.92
69009;SHT31;56065;52.472;13.380;2023-12-20T13:13:06;7.06;95.22
69009;SHT31;56065;52.472;13.380;2023-12-20T13:15:31;7.06;95.64
69009;SHT31;56065;52.472;13.380;2023-12-20T13:17:57;7.06;95.12
69009;SHT31;56065;52.472;13.380;2023-12-20T13:20:22;7.02;96.46
69009;SHT31;56065;52.472;13.380;2023-12-20T13:22:48;7.10;96.09
69009;SHT31;56065;52.472;13.380;2023-12-20T13:25:13;7.12;96.42
69009;SHT31;56065;52.472;13.380;2023-12-20T13:27:39;7.10;96.24
69009;SHT31;56065;52.472;13.380;2023-12-20T13:30:05;7.15;96.63
69009;SHT31;56065;52.472;13.380;2023-12-20T13:32:30;7.15;96.39
69009;SHT31;56065;52.472;13.380;2023-12-20T13:34:56;7.01;94.84
69009;SHT31;56065;52.472;13.380;2023-12-20T13:37:21;6.96;94.81
69009;SHT31;56065;52.472;13.380;2023-12-20T13:39:47;7.01;93.58
69009;SHT31;56065;52.472;13.380;2023-12-20T13:42:12;6.92;93.68
69009;SHT31;56065;52.472;13.380;2023-12-20T13:44:38;6.81;93.58
69009;SHT31;56065;52.472;13.380;2023-12-20T13:47:03;6.77;93.45
69009;SHT31;56065;52.472;13.380;2023-12-20T13:49:29;6.68;92.86
69009;SHT31;56065;52.472;13.380;2023-12-20T13:51:54;6.71;92.47
69009;SHT31;56065;52.472;13.380;2023-12-20T13:54:20;6.67;92.87
69009;SHT31;56065;52.472;13.380;2023-12-20T13:56:47;6.63;93.18
69009;SHT31;56065;52.472;13.380;2023-12-20T13:59:13;6.55;92.85
69009;SHT31;56065;52.472;13.380;2023-12-20T14:01:39;6.52;93.02
69009;SHT31;56065;52.472;13.380;2023-12-20T14:04:04;6.51;93.07
69009;SHT31;56065;52.472;13.380;2023-12-20T14:06:30;6.47;93.06
69009;SHT31;56065;52.472;13.380;2023-12-20T14:08:55;6.48;92.87
69009;SHT31;56065;52.472;13.380;2023-12-20T14:11:20;6.34;92.80
69009;SHT31;56065;52.472;13.380;2023-12-20T14:13:46;6.38;92.99
69009;SHT31;56065;52.472;13.380;2023-12-20T14:16:11;6.27;92.98
69009;SHT31;56065;52.472;13.380;2023-12-20T14:18:37;6.23;93.31
69009;SHT31;56065;52.472;13.380;2023-12-20T14:21:03;6.23;93.19
69009;SHT31;56065;52.472;13.380;2023-12-20T14:23:28;6.16;93.13
69009;SHT31;56065;52.472;13.380;2023-12-20T14:25:53;6.10;93.20
69009;SHT31;56065;52.472;13.380;2023-12-20T14:28:21;6.03;93.45
69009;SHT31;56065;52.472;13.380;2023-12-20T14:30:46;6.05;93.46
69009;SHT31;56065;52.472;13.380;2023-12-20T14:33:12;5.95;92.98
69009;SHT31;56065;52.472;13.380;2023-12-20T14:35:37;6.03;93.22
69009;SHT31;56065;52.472;13.380;2023-12-20T14:38:03;6.14;93.17
69009;SHT31;56065;52.472;13.380;2023-12-20T14:40:28;6.20;93.00
69009;SHT31;56065;52.472;13.380;2023-12-20T14:42:53;6.31;92.97
69009;SHT31;56065;52.472;13.380;2023-12-20T14:45:19;6.40;93.08
69009;SHT31;56065;52.472;13.380;2023-12-20T14:47:44;6.47;92.65
69009;SHT31;56065;52.472;13.380;2023-12-20T14:50:10;6.47;92.58
69009;SHT31;56065;52.472;13.380;2023-12-20T14:52:42;6.54;92.48
69009;SHT31;56065;52.472;13.380;2023-12-20T14:55:07;6.47;92.33
69009;SHT31;56065;52.472;13.380;2023-12-20T14:57:32;6.38;92.59
69009;SHT31;56065;52.472;13.380;2023-12-20T14:59:58;6.30;92.78
69009;SHT31;56065;52.472;13.380;2023-12-20T15:02:23;6.36;92.46
69009;SHT31;56065;52.472;13.380;2023-12-20T15:04:49;6.34;92.91
69009;SHT31;56065;52.472;13.380;2023-12-20T15:07:15;6.30;92.82
69009;SHT31;56065;52.472;13.380;2023-12-20T15:09:42;6.19;92.99
69009;SHT31;56065;52.472;13.380;2023-12-20T15:12:11;6.19;93.25
69009;SHT31;56065;52.472;13.380;2023-12-20T15:14:36;6.14;93.29
69009;SHT31;56065;52.472;13.380;2023-12-20T15:17:02;6.19;93.40
69009;SHT31;56065;52.472;13.380;2023-12-20T15:19:28;6.17;93.29
69009;SHT31;56065;52.472;13.380;2023-12-20T15:21:53;6.16;93.37
69009;SHT31;56065;52.472;13.380;2023-12-20T15:24:18;6.11;93.15
69009;SHT31;56065;52.472;13.380;2023-12-20T15:26:51;6.05;93.10